Time;durP1;ratioP1;P1;durP2;ratioP2;P2;SDS_P1;SDS_P2;PMS_P1;PMS_P2;Temp;Humidity;BMP_temperature;BMP_pressure;BME280_temperature;BME280_humidity;BME280_pressure;Samples;Min_cycle;Max_cycle;Signal;HPM_P1;HPM_P2
2022/10/10 17:51:08;;;;;;;;;6.25;5.00;;;;;20.89;60.86;101594.59;5127504;27;45647;-59
2022/10/10 17:53:35;;;;;;;;;3.75;3.75;;;;;21.04;60.17;101544.41;5112213;27;45388;-60
2022/10/10 17:56:01;;;;;;;;;3.00;3.00;;;;;21.57;59.03;101592.03;5112458;27;45261;-55
2022/10/10 18:00:19;;;;;;;;;9.00;8.25;;;;;21.14;58.20;101615.78;5109407;27;45502;-71
2022/10/10 18:02:44;;;;;;;;;9.25;7.75;;;;;20.92;59.22;101610.56;5092010;27;45374;-71
2022/10/10 18:05:09;;;;;;;;;12.25;9.75;;;;;20.74;59.29;101615.81;5092630;27;45265;-71
2022/10/10 18:07:35;;;;;;;;;6.50;6.25;;;;;20.56;59.60;101624.53;5092548;27;45451;-72
2022/10/10 18:10:00;;;;;;;;;11.50;8.00;;;;;20.37;60.26;101617.16;5091766;27;45613;-71
2022/10/10 18:12:25;;;;;;;;;8.00;8.00;;;;;20.29;60.32;101635.94;5090163;27;45464;-71
2022/10/10 18:14:51;;;;;;;;;12.25;10.25;;;;;20.18;60.75;101645.00;5092221;27;45369;-71
2022/10/10 18:17:16;;;;;;;;;8.25;8.25;;;;;20.12;60.96;101640.97;5090896;27;45670;-71
2022/10/10 18:19:41;;;;;;;;;11.00;10.75;;;;;20.07;61.21;101653.16;5091218;27;45378;-71
2022/10/10 18:22:07;;;;;;;;;11.00;8.25;;;;;19.91;61.58;101634.69;5092285;27;45448;-71
2022/10/10 18:24:32;;;;;;;;;9.00;6.00;;;;;19.95;61.80;101660.50;5092142;27;45725;-70
2022/10/10 18:26:58;;;;;;;;;9.00;8.00;;;;;19.87;61.67;101662.97;5091946;27;45433;-70
2022/10/10 18:29:23;;;;;;;;;8.00;8.00;;;;;19.82;62.31;101664.22;5091722;27;45848;-70
2022/10/10 18:31:49;;;;;;;;;12.00;8.50;;;;;19.74;62.39;101666.69;5091410;27;45424;-70
2022/10/10 18:34:14;;;;;;;;;8.00;6.00;;;;;19.73;62.26;101678.53;5092297;27;45379;-71
2022/10/10 18:36:41;;;;;;;;;9.25;9.00;;;;;19.68;62.12;101686.16;5091718;27;45393;-71
2022/10/10 18:39:10;;;;;;;;;4.00;4.00;;;;;19.68;62.62;101688.88;5090968;27;47586;-71
2022/10/10 18:41:35;;;;;;;;;14.50;11.00;;;;;19.65;62.84;101702.63;5091606;27;45481;-71
2022/10/10 18:44:03;;;;;;;;;9.00;8.50;;;;;19.60;63.29;101702.19;5107188;27;45311;-71
2022/10/10 18:46:29;;;;;;;;;9.25;9.25;;;;;19.57;63.41;101708.72;5091812;27;45380;-70
2022/10/10 18:48:55;;;;;;;;;9.25;8.00;;;;;19.52;63.36;101707.38;5091628;27;46149;-70
2022/10/10 18:51:23;;;;;;;;;10.50;10.50;;;;;19.44;63.90;101716.97;5092082;27;45414;-71
2022/10/10 18:53:49;;;;;;;;;10.00;8.75;;;;;19.16;64.38;101675.94;5091998;27;45364;-70
2022/10/10 18:56:19;;;;;;;;;8.50;7.50;;;;;19.38;64.60;101722.88;5091752;27;45371;-71
2022/10/10 18:58:46;;;;;;;;;14.00;13.00;;;;;19.33;65.24;101725.94;5090974;27;46347;-71
2022/10/10 19:01:14;;;;;;;;;16.75;15.50;;;;;19.24;65.43;101715.88;5090243;27;45499;-71
2022/10/10 19:03:40;;;;;;;;;17.75;16.75;;;;;18.75;66.06;101658.47;5091743;27;45407;-71
2022/10/10 19:06:08;;;;;;;;;20.50;18.50;;;;;19.11;66.75;101732.25;5089230;27;45389;-71
2022/10/10 19:08:34;;;;;;;;;18.50;16.25;;;;;19.05;66.95;101731.88;5088774;27;48460;-68
2022/10/10 19:11:00;;;;;;;;;19.25;16.25;;;;;19.03;67.40;101750.94;5081308;27;45349;-72
2022/10/10 19:13:26;;;;;;;;;19.75;19.75;;;;;19.01;67.79;101744.75;5077368;27;45401;-73
2022/10/10 19:15:52;;;;;;;;;25.00;20.25;;;;;18.83;68.00;101729.00;5078533;28;45536;-72
2022/10/10 19:18:19;;;;;;;;;26.25;24.00;;;;;18.88;68.34;101758.41;5078463;27;45501;-72
2022/10/10 19:20:44;;;;;;;;;28.25;26.50;;;;;18.68;68.85;101738.31;5077021;27;45367;-69
2022/10/10 19:23:10;;;;;;;;;26.50;25.75;;;;;18.80;68.91;101755.38;5070053;27;45471;-72
2022/10/10 19:25:37;;;;;;;;;27.75;26.25;;;;;18.72;69.13;101755.13;5074643;27;45585;-69
2022/10/10 19:28:04;;;;;;;;;28.50;25.75;;;;;18.71;68.88;101761.53;5072328;27;46118;-68
2022/10/10 19:30:29;;;;;;;;;30.00;25.75;;;;;18.70;69.26;101768.75;5072678;28;45904;-68
2022/10/10 19:32:55;;;;;;;;;30.00;28.25;;;;;18.65;69.25;101770.97;5074605;27;45535;-68
2022/10/10 19:35:20;;;;;;;;;35.25;31.50;;;;;18.55;69.60;101772.66;5075357;27;45475;-71
2022/10/10 19:37:45;;;;;;;;;27.00;26.00;;;;;18.32;69.60;101742.88;5075101;27;47438;-68
2022/10/10 19:40:11;;;;;;;;;27.00;27.00;;;;;18.36;69.77;101763.25;5063043;27;45520;-68
2022/10/10 19:42:36;;;;;;;;;31.75;29.25;;;;;18.29;69.90;101770.13;5062449;27;45424;-68
2022/10/10 19:45:02;;;;;;;;;38.50;30.25;;;;;18.37;70.01;101800.13;5075393;27;45555;-67
2022/10/10 19:47:28;;;;;;;;;35.00;27.50;;;;;18.31;70.12;101806.84;5075052;27;45490;-68
2022/10/10 19:49:53;;;;;;;;;30.00;28.25;;;;;18.29;70.30;101810.63;5074905;27;46164;-70
2022/10/10 19:52:19;;;;;;;;;27.00;24.75;;;;;18.19;69.35;101809.59;5074917;28;45399;-70
2022/10/10 19:54:44;;;;;;;;;28.00;26.75;;;;;18.08;70.33;101803.16;5075760;28;45873;-70
2022/10/10 19:57:09;;;;;;;;;27.00;23.75;;;;;18.06;70.39;101825.81;5057298;28;45465;-68
2022/10/10 19:59:35;;;;;;;;;23.75;22.25;;;;;18.05;70.39;101827.69;5075689;28;45515;-69
2022/10/10 20:02:00;;;;;;;;;26.00;24.00;;;;;18.02;70.44;101832.44;5075875;28;45460;-69
2022/10/10 20:04:26;;;;;;;;;24.50;22.75;;;;;17.97;70.22;101832.78;5075385;28;45442;-68
2022/10/10 20:06:51;;;;;;;;;22.25;20.75;;;;;17.87;70.78;101837.97;5074229;28;45396;-69
2022/10/10 20:09:16;;;;;;;;;19.25;19.00;;;;;17.86;70.72;101848.88;5074787;28;45473;-68
2022/10/10 20:11:42;;;;;;;;;15.00;13.25;;;;;17.76;70.52;101851.38;5053507;28;45480;-68
2022/10/10 20:14:08;;;;;;;;;15.50;14.50;;;;;17.63;70.32;101846.00;5054763;28;45574;-69
2022/10/10 20:16:34;;;;;;;;;14.75;13.50;;;;;17.76;70.61;101865.75;5028702;28;48012;-72
2022/10/10 20:18:59;;;;;;;;;10.25;10.25;;;;;17.63;70.20;101852.25;5037096;28;45434;-70
2022/10/10 20:21:30;;;;;;;;;14.50;14.50;;;;;17.73;70.46;101881.28;5054928;28;45354;-72
2022/10/10 20:23:57;;;;;;;;;13.00;13.00;;;;;17.69;70.17;101883.31;5055322;28;45287;-68
2022/10/10 20:26:24;;;;;;;;;12.00;11.75;;;;;17.71;70.56;101889.50;5044906;28;47110;-70
2022/10/10 20:28:50;;;;;;;;;18.00;15.00;;;;;17.73;70.03;101889.38;5076186;28;45335;-71
2022/10/10 20:31:19;;;;;;;;;10.75;10.75;;;;;17.76;69.62;101891.84;5076350;28;45529;-70
2022/10/10 20:33:49;;;;;;;;;11.00;11.00;;;;;17.79;69.83;101897.03;5058471;28;45501;-71
2022/10/10 20:36:16;;;;;;;;;11.00;11.00;;;;;17.63;69.90;101870.28;5076421;28;46356;-71
2022/10/10 20:38:41;;;;;;;;;9.75;9.75;;;;;17.81;69.96;101911.28;5076623;28;45408;-70
2022/10/10 20:41:08;;;;;;;;;10.50;10.50;;;;;17.55;69.61;101870.81;5076771;28;45357;-70
2022/10/10 20:43:34;;;;;;;;;12.50;10.75;;;;;17.76;69.59;101911.63;5058510;28;45548;-70
2022/10/10 20:46:13;;;;;;;;;10.50;10.25;;;;;17.48;69.71;101865.00;5076303;28;46439;-70
2022/10/10 20:48:38;;;;;;;;;12.50;11.50;;;;;17.79;69.62;101916.78;5058141;28;45346;-70
2022/10/10 20:51:10;;;;;;;;;12.00;10.75;;;;;17.80;69.49;101923.91;5076305;28;45362;-69
2022/10/10 20:53:38;;;;;;;;;7.50;7.50;;;;;16.97;69.05;101781.44;5076423;28;45359;-70
2022/10/10 20:56:05;;;;;;;;;10.25;9.75;;;;;17.76;69.25;101922.41;5076004;28;46398;-69
2022/10/10 20:58:33;;;;;;;;;10.00;9.00;;;;;17.75;69.19;101920.69;5081405;27;45442;-70
2022/10/10 21:01:10;;;;;;;;;11.75;8.50;;;;;17.49;69.09;101882.03;5096599;27;45392;-69
2022/10/10 21:03:36;;;;;;;;;14.00;9.75;;;;;17.73;69.27;101921.75;5095579;27;45324;-69
2022/10/10 21:06:04;;;;;;;;;10.00;9.00;;;;;17.70;69.54;101927.38;5093714;27;47632;-70
2022/10/10 21:08:29;;;;;;;;;12.00;8.50;;;;;17.64;69.66;101932.22;5075468;28;45303;-70
2022/10/10 21:10:55;;;;;;;;;8.75;8.00;;;;;17.57;69.40;101938.16;5075478;28;45423;-70
2022/10/10 21:13:20;;;;;;;;;8.25;6.50;;;;;17.49;68.72;101944.97;5075901;27;45372;-70
2022/10/10 21:15:46;;;;;;;;;7.00;5.00;;;;;17.45;68.55;101950.66;5074568;28;46434;-69
2022/10/10 21:18:11;;;;;;;;;4.00;4.00;;;;;17.36;67.63;101951.31;5076004;27;45383;-69
2022/10/10 21:20:36;;;;;;;;;5.50;4.00;;;;;17.35;67.93;101957.69;5076965;27;45357;-70
2022/10/10 21:23:04;;;;;;;;;3.00;2.00;;;;;17.12;67.14;101912.44;5076223;27;45346;-69
2022/10/10 21:25:29;;;;;;;;;3.25;3.00;;;;;17.30;66.74;101953.47;5108181;27;46836;-70
2022/10/10 21:27:54;;;;;;;;;3.50;3.50;;;;;17.27;67.04;101955.50;5075939;27;45325;-69
2022/10/10 21:30:20;;;;;;;;;1.67;1.67;;;;;17.21;66.26;101961.31;5076322;27;45388;-70
2022/10/10 21:32:46;;;;;;;;;4.00;2.50;;;;;17.15;66.42;101957.19;5075837;27;45431;-70
2022/10/10 21:35:11;;;;;;;;;3.75;1.75;;;;;17.07;65.71;101957.75;5075570;27;47317;-69
2022/10/10 21:37:36;;;;;;;;;1.00;1.00;;;;;16.90;65.94;101949.94;5075212;27;45372;-69
2022/10/10 21:40:02;;;;;;;;;1.00;1.00;;;;;17.00;65.75;101967.19;5075042;27;45436;-70
2022/10/10 21:42:27;;;;;;;;;1.00;1.00;;;;;16.94;65.97;101957.69;5074880;27;45523;-69
2022/10/10 21:44:53;;;;;;;;;2.00;2.00;;;;;16.97;66.00;101978.19;5074697;27;46102;-69
2022/10/10 21:47:18;;;;;;;;;3.33;2.67;;;;;16.85;65.97;101946.63;5074560;27;45387;-69
2022/10/10 21:49:43;;;;;;;;;1.67;1.67;;;;;16.57;65.90;101900.81;5074528;27;45440;-69
2022/10/10 21:52:09;;;;;;;;;1.67;1.67;;;;;17.01;65.71;101973.47;5074875;27;45442;-70
2022/10/10 21:54:34;;;;;;;;;1.75;1.75;;;;;16.95;65.19;101990.88;5056242;28;45982;-70
2022/10/10 21:56:59;;;;;;;;;4.00;2.00;;;;;16.83;64.87;101989.88;5074726;27;45464;-69
2022/10/10 21:59:29;;;;;;;;;4.50;3.00;;;;;16.76;64.88;101992.09;5074696;27;45387;-70
2022/10/10 22:01:54;;;;;;;;;2.00;2.00;;;;;16.75;65.05;101990.38;5074194;28;45433;-69
2022/10/10 22:04:19;;;;;;;;;2.67;2.00;;;;;16.71;64.95;101969.97;5074641;28;47189;-71
2022/10/10 22:06:44;;;;;;;;;2.00;2.00;;;;;16.67;64.65;101965.75;5074552;28;45382;-70
2022/10/10 22:09:10;;;;;;;;;3.00;2.00;;;;;16.74;64.50;101988.63;5074587;28;45313;-70
2022/10/10 22:11:35;;;;;;;;;3.75;2.25;;;;;16.58;64.31;101955.59;5054273;28;45526;-69
2022/10/10 22:14:01;;;;;;;;;2.50;2.50;;;;;16.73;64.28;101994.13;5036152;28;45552;-71
2022/10/10 22:16:26;;;;;;;;;3.75;3.00;;;;;16.67;64.11;101986.41;5035963;28;45338;-70
2022/10/10 22:18:56;;;;;;;;;2.00;2.00;;;;;16.26;63.98;101923.53;5054105;28;45245;-70
2022/10/10 22:21:22;;;;;;;;;2.33;2.33;;;;;16.59;63.98;101986.94;5054226;28;45433;-69
2022/10/10 22:23:47;;;;;;;;;1.25;1.25;;;;;16.54;63.91;101984.53;5052069;28;47218;-69
2022/10/10 22:26:15;;;;;;;;;1.00;1.00;;;;;16.54;64.32;101991.75;5053859;28;45379;-69
2022/10/10 22:28:40;;;;;;;;;6.67;2.00;;;;;15.54;64.27;101830.28;5054049;28;45351;-69
2022/10/10 22:31:12;;;;;;;;;3.00;2.00;;;;;16.52;64.27;101999.06;5053712;28;45423;-71
2022/10/10 22:33:37;;;;;;;;;3.00;2.50;;;;;16.54;63.97;102002.53;5053965;28;46330;-71
2022/10/10 22:36:04;;;;;;;;;2.50;2.00;;;;;16.54;63.99;101997.16;5054049;28;45359;-71
2022/10/10 22:38:29;;;;;;;;;4.33;2.00;;;;;16.51;64.16;102008.97;5053628;28;45491;-71
2022/10/10 22:40:54;;;;;;;;;3.00;2.00;;;;;16.50;63.91;102001.84;5054009;28;45377;-72
2022/10/10 22:43:20;;;;;;;;;2.00;1.50;;;;;16.48;64.28;102001.13;5053591;28;45392;-72
2022/10/10 22:45:45;;;;;;;;;3.00;2.00;;;;;15.95;63.87;101917.41;5074594;28;45286;-71
2022/10/10 22:48:10;;;;;;;;;3.75;1.00;;;;;16.42;63.78;102007.72;5077613;28;45521;-71
2022/10/10 22:50:36;;;;;;;;;2.25;2.00;;;;;16.37;64.17;102007.19;5077453;28;45251;-71
2022/10/10 22:53:01;;;;;;;;;1.00;1.00;;;;;16.37;64.12;102015.28;5059228;28;48221;-71
2022/10/10 22:55:27;;;;;;;;;2.75;2.75;;;;;16.39;64.11;102016.03;5077252;28;45228;-72
2022/10/10 22:57:53;;;;;;;;;2.00;1.00;;;;;16.37;64.02;102017.97;5077168;28;45398;-69
2022/10/10 23:00:18;;;;;;;;;1.00;1.00;;;;;16.34;64.05;102022.66;5076519;28;45304;-71
2022/10/10 23:02:44;;;;;;;;;2.00;2.00;;;;;16.29;63.77;102014.84;5058885;28;45471;-71
2022/10/10 23:05:09;;;;;;;;;0.33;0.33;;;;;16.31;63.69;102010.25;5077154;28;45509;-71
2022/10/10 23:07:34;;;;;;;;;1.00;1.00;;;;;16.18;63.93;101998.53;5077093;28;45435;-72
2022/10/10 23:10:00;;;;;;;;;3.00;1.50;;;;;16.31;63.83;102021.03;5070466;28;45437;-72
2022/10/10 23:12:25;;;;;;;;;1.00;1.00;;;;;16.05;63.73;101972.41;5056681;28;46197;-71
2022/10/10 23:14:50;;;;;;;;;3.25;1.00;;;;;16.32;63.82;102030.84;5056645;28;45359;-69
2022/10/10 23:17:16;;;;;;;;;4.50;2.00;;;;;16.27;63.58;102022.19;5055524;28;45428;-70
2022/10/10 23:19:41;;;;;;;;;3.00;2.00;;;;;16.23;63.52;102028.72;5058527;28;45415;-70
2022/10/10 23:22:07;;;;;;;;;1.67;1.67;;;;;16.19;63.67;102024.50;5077010;28;45396;-70
2022/10/10 23:24:32;;;;;;;;;1.00;1.00;;;;;16.19;63.67;102027.19;5058358;28;45409;-70
2022/10/10 23:26:57;;;;;;;;;1.00;1.00;;;;;16.19;63.65;102019.13;5077178;28;45338;-71
2022/10/10 23:29:23;;;;;;;;;1.00;1.00;;;;;16.20;63.72;102020.84;5076678;28;45501;-71
2022/10/10 23:31:48;;;;;;;;;1.33;1.33;;;;;16.19;63.73;102027.19;5076873;28;45443;-71
2022/10/10 23:34:13;;;;;;;;;2.33;1.33;;;;;16.21;63.79;102022.56;5076839;28;45347;-70
2022/10/10 23:36:39;;;;;;;;;3.00;2.00;;;;;16.22;63.72;102024.28;5076686;28;45402;-71
2022/10/10 23:39:04;;;;;;;;;1.33;1.33;;;;;16.24;63.79;102017.00;5076760;28;45358;-71
2022/10/10 23:41:29;;;;;;;;;1.00;1.00;;;;;16.21;63.67;102027.94;5058336;28;48097;-71
2022/10/10 23:43:55;;;;;;;;;2.00;2.00;;;;;16.22;63.62;102022.50;5076368;28;45524;-71
2022/10/10 23:46:20;;;;;;;;;2.33;1.00;;;;;16.23;63.83;102032.28;5076515;28;45341;-71
2022/10/10 23:48:46;;;;;;;;;1.67;1.67;;;;;16.25;63.50;102024.97;5058808;28;45535;-70
2022/10/10 23:51:11;;;;;;;;;3.00;1.25;;;;;16.23;63.17;102023.34;5076397;28;45553;-70
2022/10/10 23:53:37;;;;;;;;;1.00;1.00;;;;;16.19;63.63;102019.13;5076353;28;45397;-71
2022/10/10 23:56:02;;;;;;;;;1.33;1.33;;;;;16.18;63.15;102030.84;5057936;28;45399;-71
2022/10/10 23:58:28;;;;;;;;;1.33;1.33;;;;;16.08;63.45;102017.09;5076570;28;45369;-71
